Weather at Malvinas Argentinas Airport

Public forecast

Using degrees Celsius for public forecast. Weather courtesy of forecast.io.

Current aviation weather report (METAR) for Malvinas Argentinas Airport

Report is more than 6 hours old.

2024/06/24 06:00 (retrieved 1 day ago)

SAWH 240600Z 36006KT CAVOK M04/M07 Q1019

Aviation forecast (TAF) for Malvinas Argentinas Airport

Forecast is more than 12 hours old.

2024/06/24 18:00 (retrieved 15 hours ago)

TAF SAWH 241700Z 2418/2518 36005KT CAVOK TNM01/2422Z TNM03/2410Z BECMG 2500/2502 9999 SCT020 BKN040 TEMPO 2509/2512 8000 SN OVC030